Time;durP1;ratioP1;P1;durP2;ratioP2;P2;SDS_P1;SDS_P2;PMS_P1;PMS_P2;Temp;Humidity;BMP_temperature;BMP_pressure;BME280_temperature;BME280_humidity;BME280_pressure;Samples;Min_cycle;Max_cycle;Signal;HPM_P1;HPM_P2
2023/08/12 00:00:26;;;;;;;9.70;5.70;;;;;;;20.05;100.00;101652.38;993173;29;20058;-85
2023/08/12 00:00:57;;;;;;;6.10;5.15;;;;;;;20.14;100.00;101660.00;996940;29;20438;-85
2023/08/12 00:01:29;;;;;;;6.93;5.88;;;;;;;20.00;100.00;101648.81;999898;29;20370;-85
2023/08/12 00:02:01;;;;;;;6.22;5.20;;;;;;;19.90;100.00;101652.25;996351;29;20054;-85
2023/08/12 00:02:32;;;;;;;9.32;5.15;;;;;;;19.84;100.00;101645.16;996205;29;20457;-85
2023/08/12 00:03:04;;;;;;;6.47;5.25;;;;;;;19.85;100.00;101648.69;988611;30;20051;-85
2023/08/12 00:03:36;;;;;;;6.63;5.03;;;;;;;19.88;100.00;101635.47;988926;30;20458;-85
2023/08/12 00:04:07;;;;;;;6.70;4.40;;;;;;;20.05;100.00;101641.56;988655;30;20071;-85
2023/08/12 00:04:39;;;;;;;9.40;6.20;;;;;;;20.15;100.00;101640.78;989399;29;20446;-85
2023/08/12 00:05:11;;;;;;;8.38;5.72;;;;;;;20.17;100.00;101640.53;992719;29;20534;-85
2023/08/12 00:05:43;;;;;;;6.70;4.97;;;;;;;20.11;100.00;101639.69;993434;29;20047;-85
2023/08/12 00:06:15;;;;;;;6.30;5.10;;;;;;;20.03;100.00;101638.28;995548;29;20046;-85
2023/08/12 00:06:47;;;;;;;5.93;4.68;;;;;;;19.99;100.00;101637.16;996298;29;20077;-85
2023/08/12 00:07:19;;;;;;;9.65;6.65;;;;;;;20.10;100.00;101637.25;992835;29;20054;-85
2023/08/12 00:07:50;;;;;;;10.95;5.70;;;;;;;20.02;100.00;101641.25;992529;29;20059;-85
2023/08/12 00:08:22;;;;;;;9.50;5.55;;;;;;;19.94;100.00;101649.84;995760;29;20144;-85
2023/08/12 00:08:54;;;;;;;8.35;4.68;;;;;;;19.95;100.00;101646.88;996571;29;20061;-85
2023/08/12 00:09:25;;;;;;;11.48;4.97;;;;;;;19.89;100.00;101645.19;995538;29;20057;-85
2023/08/12 00:09:57;;;;;;;5.15;4.65;;;;;;;19.63;100.00;101637.94;992070;29;20047;-85
2023/08/12 00:10:28;;;;;;;8.45;5.07;;;;;;;19.50;100.00;101643.75;992731;29;20057;-85
2023/08/12 00:11:00;;;;;;;7.88;4.57;;;;;;;19.31;100.00;101646.81;991815;29;20047;-85
2023/08/12 00:11:32;;;;;;;5.65;4.60;;;;;;;19.28;100.00;101641.09;996427;29;20149;-85
2023/08/12 00:12:04;;;;;;;11.48;4.95;;;;;;;19.29;100.00;101648.97;995695;29;20061;-85
2023/08/12 00:12:36;;;;;;;6.95;4.72;;;;;;;19.41;100.00;101637.97;991137;29;20049;-85
2023/08/12 00:13:08;;;;;;;6.70;4.60;;;;;;;19.49;100.00;101639.44;992368;29;20099;-85
2023/08/12 00:13:39;;;;;;;8.98;4.47;;;;;;;19.57;100.00;101642.50;993242;29;20065;-85
2023/08/12 00:14:11;;;;;;;6.45;5.35;;;;;;;19.52;100.00;101647.03;992661;29;20050;-85
2023/08/12 00:14:43;;;;;;;6.63;4.95;;;;;;;19.61;100.00;101640.09;993878;29;20043;-85
2023/08/12 00:15:14;;;;;;;9.88;5.68;;;;;;;19.43;100.00;101639.34;996714;29;20043;-85
2023/08/12 00:15:46;;;;;;;11.32;5.72;;;;;;;19.42;100.00;101637.72;988069;29;20060;-85
2023/08/12 00:16:18;;;;;;;8.20;5.93;;;;;;;19.52;100.00;101641.63;985291;30;20072;-85
2023/08/12 00:16:49;;;;;;;5.13;4.72;;;;;;;19.57;100.00;101641.69;989391;29;20055;-85
2023/08/12 00:17:21;;;;;;;6.03;4.40;;;;;;;19.67;100.00;101644.47;988565;29;20047;-85
2023/08/12 00:17:52;;;;;;;9.65;5.68;;;;;;;19.77;100.00;101639.16;988774;29;20066;-85
2023/08/12 00:18:24;;;;;;;8.65;4.72;;;;;;;19.82;100.00;101636.50;991895;29;20134;-85
2023/08/12 00:18:56;;;;;;;6.88;4.75;;;;;;;19.88;100.00;101640.06;988578;29;20058;-85
2023/08/12 00:19:27;;;;;;;8.27;4.97;;;;;;;19.90;100.00;101638.72;989270;29;20047;-85
2023/08/12 00:19:59;;;;;;;7.68;4.78;;;;;;;19.97;100.00;101638.50;996066;29;20054;-85
2023/08/12 00:20:31;;;;;;;11.90;5.30;;;;;;;19.99;100.00;101637.16;989285;29;20043;-85
2023/08/12 00:21:09;;;;;;;8.43;5.28;;;;;;;20.05;100.00;101635.31;992239;29;20046;-85
2023/08/12 00:21:41;;;;;;;9.75;5.05;;;;;;;20.09;100.00;101632.91;992405;29;20057;-85
2023/08/12 00:22:13;;;;;;;8.48;5.30;;;;;;;20.09;100.00;101638.31;999448;29;20054;-85
2023/08/12 00:22:44;;;;;;;5.72;5.07;;;;;;;20.09;100.00;101641.03;996374;29;20038;-85
2023/08/12 00:23:16;;;;;;;7.68;5.72;;;;;;;20.15;100.00;101634.56;996425;29;20095;-85
2023/08/12 00:23:49;;;;;;;6.10;4.82;;;;;;;20.04;100.00;101639.09;988782;29;20043;-85
2023/08/12 00:24:21;;;;;;;5.70;5.00;;;;;;;19.91;100.00;101632.25;996665;29;20141;-85
2023/08/12 00:24:52;;;;;;;6.43;4.60;;;;;;;19.96;100.00;101637.69;996184;29;20047;-85
2023/08/12 00:25:24;;;;;;;8.23;5.93;;;;;;;19.87;100.00;101644.66;996546;29;20050;-85
2023/08/12 00:25:58;;;;;;;9.35;5.50;;;;;;;20.01;100.00;101645.84;999994;29;20056;-85
2023/08/12 00:26:30;;;;;;;5.72;5.20;;;;;;;19.96;100.00;101645.78;999251;29;20061;-85
2023/08/12 00:27:01;;;;;;;5.85;4.90;;;;;;;19.88;100.00;101646.28;994374;29;20077;-85
2023/08/12 00:27:33;;;;;;;6.85;5.43;;;;;;;19.91;100.00;101645.75;995593;29;20051;-85
2023/08/12 00:28:05;;;;;;;7.43;5.68;;;;;;;19.89;100.00;101647.91;992328;29;20070;-85
2023/08/12 00:28:37;;;;;;;6.45;5.13;;;;;;;19.89;100.00;101647.91;988390;29;20195;-85
2023/08/12 00:29:09;;;;;;;6.20;5.65;;;;;;;19.85;100.00;101643.28;989337;29;20047;-85
2023/08/12 00:29:40;;;;;;;6.05;4.75;;;;;;;19.74;100.00;101645.09;993249;29;20488;-85
2023/08/12 00:30:12;;;;;;;5.20;4.70;;;;;;;19.73;100.00;101646.16;995558;29;20050;-85
2023/08/12 00:30:44;;;;;;;5.30;4.80;;;;;;;19.79;100.00;101647.84;995392;29;20064;-85
2023/08/12 00:31:15;;;;;;;6.25;5.32;;;;;;;19.89;100.00;101642.50;996174;29;20359;-85
2023/08/12 00:31:47;;;;;;;8.13;5.70;;;;;;;20.00;100.00;101643.41;986843;30;20047;-85
2023/08/12 00:32:19;;;;;;;5.72;4.78;;;;;;;19.91;100.00;101640.34;988616;29;20073;-85
2023/08/12 00:32:51;;;;;;;6.28;5.68;;;;;;;19.81;100.00;101637.56;991927;29;20054;-85
2023/08/12 00:33:23;;;;;;;10.30;5.60;;;;;;;19.90;100.00;101638.72;988856;29;20039;-85
2023/08/12 00:33:55;;;;;;;7.15;5.20;;;;;;;19.94;100.00;101637.13;993081;29;20069;-85
2023/08/12 00:34:26;;;;;;;6.70;5.15;;;;;;;20.01;100.00;101631.53;992229;29;20506;-85
2023/08/12 00:34:58;;;;;;;6.32;5.63;;;;;;;20.09;100.00;101630.22;991206;29;20495;-85
2023/08/12 00:35:30;;;;;;;6.20;4.47;;;;;;;20.06;100.00;101637.78;992898;29;20165;-85
2023/08/12 00:36:01;;;;;;;10.93;5.25;;;;;;;20.08;100.00;101634.00;993002;29;20062;-85
2023/08/12 00:36:33;;;;;;;6.97;4.78;;;;;;;20.12;100.00;101626.97;995989;29;20473;-85
2023/08/12 00:37:05;;;;;;;7.47;5.63;;;;;;;20.17;100.00;101624.31;995850;29;20456;-85
2023/08/12 00:37:37;;;;;;;7.53;5.03;;;;;;;20.20;100.00;101626.47;993456;29;20039;-85
2023/08/12 00:38:09;;;;;;;9.68;5.30;;;;;;;20.21;100.00;101622.69;995732;29;20525;-85
2023/08/12 00:38:40;;;;;;;6.63;4.70;;;;;;;20.22;100.00;101617.03;995550;29;20046;-85
2023/08/12 00:39:12;;;;;;;10.70;5.53;;;;;;;20.21;100.00;101611.88;995948;29;20043;-85
2023/08/12 00:39:44;;;;;;;5.53;5.00;;;;;;;20.20;100.00;101610.25;989093;29;20141;-85
2023/08/12 00:40:16;;;;;;;9.98;5.50;;;;;;;20.22;100.00;101616.22;992615;29;20046;-85
2023/08/12 00:40:47;;;;;;;8.25;5.18;;;;;;;20.21;100.00;101611.88;999797;29;20065;-85
2023/08/12 00:41:19;;;;;;;7.95;4.82;;;;;;;20.18;100.00;101607.00;996407;29;20510;-85
2023/08/12 00:41:51;;;;;;;8.27;4.88;;;;;;;20.21;100.00;101606.47;992247;29;20043;-85
2023/08/12 00:42:24;;;;;;;8.40;6.65;;;;;;;20.20;100.00;101610.25;988389;29;20594;-85
2023/08/12 00:42:56;;;;;;;7.60;4.63;;;;;;;20.15;100.00;101612.94;994989;29;20096;-85
2023/08/12 00:43:27;;;;;;;6.63;5.43;;;;;;;20.12;100.00;101610.75;988644;30;20471;-85
2023/08/12 00:44:17;;;;;;;8.88;5.38;;;;;;;20.08;100.00;101615.06;991809;29;20595;-85
2023/08/12 00:44:49;;;;;;;5.85;5.25;;;;;;;19.93;100.00;101615.75;992376;29;20054;-85
2023/08/12 00:45:20;;;;;;;5.03;4.55;;;;;;;19.94;100.00;101618.19;992412;29;20426;-85
2023/08/12 00:45:52;;;;;;;8.68;5.15;;;;;;;19.88;100.00;101621.94;992285;29;20058;-85
2023/08/12 00:46:24;;;;;;;9.45;5.45;;;;;;;19.98;100.00;101623.91;995857;29;20042;-85
2023/08/12 00:46:57;;;;;;;7.90;5.78;;;;;;;19.71;100.00;101618.56;1002203;29;20049;-85
2023/08/12 00:47:30;;;;;;;6.03;4.93;;;;;;;19.61;100.00;101623.88;999942;29;20540;-85
2023/08/12 00:48:05;;;;;;;6.57;4.90;;;;;;;19.73;100.00;101628.06;999470;29;20417;-85
2023/08/12 00:48:38;;;;;;;9.35;5.97;;;;;;;19.55;100.00;101625.72;996125;29;20054;-85
2023/08/12 00:49:10;;;;;;;7.53;5.43;;;;;;;19.65;100.00;101633.09;992283;29;20544;-85
2023/08/12 00:49:45;;;;;;;7.80;6.00;;;;;;;19.64;100.00;101626.06;985732;29;20123;-85
2023/08/12 00:50:17;;;;;;;8.50;5.32;;;;;;;19.55;100.00;101631.13;988599;29;20055;-85
2023/08/12 00:50:48;;;;;;;7.18;5.63;;;;;;;19.55;100.00;101630.31;992091;29;20152;-85
2023/08/12 00:51:20;;;;;;;9.45;6.60;;;;;;;19.57;100.00;101637.09;992603;29;20882;-85
2023/08/12 00:51:52;;;;;;;7.20;6.13;;;;;;;19.52;100.00;101628.91;996165;29;20133;-85
2023/08/12 00:52:24;;;;;;;7.72;5.40;;;;;;;19.54;100.00;101634.91;999657;29;20060;-85
2023/08/12 00:52:56;;;;;;;9.88;5.85;;;;;;;19.59;100.00;101632.25;996259;29;20050;-85
2023/08/12 00:53:28;;;;;;;8.63;6.22;;;;;;;19.40;100.00;101630.94;999881;29;20038;-85
2023/08/12 00:54:02;;;;;;;7.80;6.50;;;;;;;19.27;100.00;101626.78;996121;29;20622;-86
2023/08/12 00:54:34;;;;;;;8.75;5.88;;;;;;;19.38;100.00;101631.22;988578;30;20043;-85
2023/08/12 00:55:06;;;;;;;6.93;5.93;;;;;;;19.52;100.00;101630.81;988690;29;20051;-85
2023/08/12 00:55:37;;;;;;;7.65;5.95;;;;;;;19.51;100.00;101629.19;991526;29;20123;-85
2023/08/12 00:56:09;;;;;;;6.85;5.40;;;;;;;19.33;100.00;101633.88;995668;29;20140;-85
2023/08/12 00:56:41;;;;;;;7.25;5.47;;;;;;;19.43;100.00;101623.16;992598;29;20417;-85
2023/08/12 00:57:13;;;;;;;9.43;6.82;;;;;;;19.58;100.00;101627.91;985744;29;20048;-85
2023/08/12 00:57:45;;;;;;;11.32;6.50;;;;;;;19.52;100.00;101625.41;993385;29;20054;-85
2023/08/12 00:58:17;;;;;;;8.43;7.50;;;;;;;19.49;100.00;101631.31;996108;29;20061;-85
2023/08/12 00:58:48;;;;;;;7.18;6.43;;;;;;;19.68;100.00;101624.47;989247;29;20149;-85
2023/08/12 00:59:21;;;;;;;9.23;6.22;;;;;;;19.73;100.00;101628.06;992317;29;20043;-85
2023/08/12 00:59:55;;;;;;;8.43;7.03;;;;;;;19.74;100.00;101624.28;996019;29;20057;-85
2023/08/12 01:00:26;;;;;;;11.88;6.85;;;;;;;19.72;100.00;101625.59;997113;29;20447;-85
2023/08/12 01:00:58;;;;;;;5.90;5.38;;;;;;;19.90;100.00;101622.50;999720;29;20057;-85
2023/08/12 01:01:30;;;;;;;9.65;6.97;;;;;;;19.97;100.00;101633.91;992379;29;20070;-85
2023/08/12 01:02:04;;;;;;;9.32;6.30;;;;;;;20.05;100.00;101627.22;992138;29;20047;-85
2023/08/12 01:02:35;;;;;;;12.25;5.95;;;;;;;20.06;100.00;101618.03;992454;29;20411;-85
2023/08/12 01:03:08;;;;;;;12.55;6.35;;;;;;;20.06;100.00;101608.03;992589;29;20123;-85
2023/08/12 01:03:41;;;;;;;17.48;6.95;;;;;;;19.94;100.00;101612.78;988288;30;20112;-85
2023/08/12 01:04:13;;;;;;;7.93;6.63;;;;;;;19.87;100.00;101616.78;992026;29;20066;-85
2023/08/12 01:04:44;;;;;;;8.32;6.70;;;;;;;19.68;100.00;101619.06;988573;29;20109;-85
2023/08/12 01:05:16;;;;;;;7.13;6.43;;;;;;;19.76;100.00;101615.91;992162;29;20049;-85
2023/08/12 01:05:48;;;;;;;14.98;6.60;;;;;;;19.77;100.00;101619.44;988245;29;20050;-85
2023/08/12 01:06:19;;;;;;;7.28;6.50;;;;;;;19.69;100.00;101609.88;992097;29;20042;-85
2023/08/12 01:06:52;;;;;;;10.50;6.72;;;;;;;19.60;100.00;101606.84;995990;29;20046;-85
2023/08/12 01:07:23;;;;;;;8.55;6.75;;;;;;;19.54;100.00;101607.06;999494;29;20046;-85
2023/08/12 01:07:55;;;;;;;7.38;6.47;;;;;;;19.57;100.00;101609.25;1000149;29;20076;-85
2023/08/12 01:08:30;;;;;;;10.18;7.63;;;;;;;19.54;100.00;101613.28;998706;29;20061;-85
2023/08/12 01:09:05;;;;;;;7.55;6.22;;;;;;;19.54;100.00;101615.19;999068;29;20078;-85
2023/08/12 01:09:36;;;;;;;8.00;6.93;;;;;;;19.31;100.00;101611.69;999678;29;20057;-85
2023/08/12 01:10:10;;;;;;;8.55;7.22;;;;;;;19.49;100.00;101615.94;999858;29;20053;-85
2023/08/12 01:10:49;;;;;;;8.32;7.50;;;;;;;19.58;100.00;101608.19;996163;29;20421;-85
2023/08/12 01:11:28;;;;;;;7.38;6.68;;;;;;;19.76;100.00;101605.09;991651;29;20047;-85
2023/08/12 01:12:28;;;;;;;13.05;6.75;;;;;;;19.58;100.00;101609.00;992755;29;20069;-85
2023/08/12 01:13:26;;;;;;;11.07;7.53;;;;;;;19.84;100.00;101601.09;985169;29;20059;-85
2023/08/12 01:14:27;;;;;;;6.95;6.25;;;;;;;19.96;100.00;101597.13;990588;29;20059;-85
2023/08/12 01:15:07;;;;;;;14.57;8.02;;;;;;;20.03;100.00;101597.72;992394;29;20065;-85
2023/08/12 01:15:40;;;;;;;12.68;7.38;;;;;;;20.08;100.00;101585.31;990154;29;20137;-85
2023/08/12 01:16:15;;;;;;;7.57;6.88;;;;;;;20.11;100.00;101592.91;992204;29;20083;-85
2023/08/12 01:16:49;;;;;;;10.45;7.43;;;;;;;20.11;100.00;101584.78;990347;29;20047;-85
2023/08/12 01:17:21;;;;;;;9.35;7.35;;;;;;;20.09;100.00;101584.22;992135;29;20483;-85
2023/08/12 01:17:54;;;;;;;16.48;7.18;;;;;;;20.08;100.00;101579.91;996013;29;20051;-85
2023/08/12 01:18:26;;;;;;;13.40;7.53;;;;;;;20.05;100.00;101582.06;995769;29;20042;-85
2023/08/12 01:18:58;;;;;;;10.45;7.30;;;;;;;19.99;100.00;101583.06;998856;29;20145;-85
2023/08/12 01:19:35;;;;;;;7.50;6.85;;;;;;;20.04;100.00;101583.13;995810;29;20058;-85
2023/08/12 01:20:08;;;;;;;9.75;7.43;;;;;;;20.03;100.00;101577.97;992086;29;20059;-85
2023/08/12 01:20:40;;;;;;;11.00;6.10;;;;;;;20.02;100.00;101579.06;999802;29;20046;-85
2023/08/12 01:21:16;;;;;;;9.60;7.70;;;;;;;19.90;100.00;101573.81;1003255;29;20049;-85
2023/08/12 01:21:49;;;;;;;8.73;6.95;;;;;;;19.84;100.00;101582.97;999799;29;20042;-85
2023/08/12 01:22:22;;;;;;;8.70;7.25;;;;;;;19.83;100.00;101583.25;995773;29;20046;-85
2023/08/12 01:23:07;;;;;;;10.88;6.90;;;;;;;19.87;100.00;101585.16;995898;29;20043;-85
2023/08/12 01:23:41;;;;;;;8.05;7.00;;;;;;;19.80;100.00;101583.75;994230;29;20103;-85
2023/08/12 01:24:13;;;;;;;8.30;7.50;;;;;;;19.84;100.00;101584.88;1002099;29;20072;-85
2023/08/12 01:24:45;;;;;;;10.00;7.72;;;;;;;19.70;100.00;101587.19;999852;29;20111;-85
2023/08/12 01:25:16;;;;;;;12.13;7.90;;;;;;;19.71;100.00;101591.53;1000068;29;20073;-85
2023/08/12 01:25:48;;;;;;;10.10;7.10;;;;;;;19.65;100.00;101587.97;999393;29;20140;-85
2023/08/12 01:26:20;;;;;;;8.68;6.85;;;;;;;19.66;100.00;101588.78;995887;29;20049;-85
2023/08/12 01:26:51;;;;;;;10.45;7.57;;;;;;;19.63;100.00;101583.91;995457;29;20062;-85
2023/08/12 01:27:23;;;;;;;14.70;8.77;;;;;;;19.60;100.00;101596.03;999592;29;20038;-85
2023/08/12 01:27:56;;;;;;;8.02;7.13;;;;;;;19.61;100.00;101592.25;999208;29;20520;-85
2023/08/12 01:28:28;;;;;;;8.05;7.35;;;;;;;19.55;100.00;101593.31;995881;29;20552;-85
2023/08/12 01:29:00;;;;;;;8.73;7.07;;;;;;;19.60;100.00;101600.63;991841;29;20135;-85
2023/08/12 01:29:33;;;;;;;9.95;7.65;;;;;;;19.57;100.00;101595.75;994960;29;20050;-85
2023/08/12 01:30:06;;;;;;;10.30;6.65;;;;;;;19.53;100.00;101595.44;992146;29;20391;-85
2023/08/12 01:30:57;;;;;;;9.35;8.07;;;;;;;19.78;100.00;101583.22;984421;30;20092;-85
2023/08/12 01:31:52;;;;;;;11.50;8.05;;;;;;;19.97;100.00;101579.81;988362;30;20462;-85
2023/08/12 01:32:44;;;;;;;8.77;7.38;;;;;;;20.05;100.00;101579.34;997312;29;20155;-85
2023/08/12 01:33:46;;;;;;;12.02;8.98;;;;;;;19.97;100.00;101570.88;995969;29;20042;-85
2023/08/12 01:34:27;;;;;;;18.00;9.68;;;;;;;20.04;100.00;101577.72;995643;29;20042;-85
2023/08/12 01:35:04;;;;;;;12.23;8.18;;;;;;;20.07;100.00;101573.69;997740;29;20175;-85
2023/08/12 01:35:40;;;;;;;11.77;8.55;;;;;;;20.07;100.00;101570.97;992007;29;20039;-85
2023/08/12 01:36:16;;;;;;;11.90;8.18;;;;;;;20.09;100.00;101562.59;995424;29;20069;-85
2023/08/12 01:36:54;;;;;;;15.35;8.73;;;;;;;20.04;100.00;101561.50;989639;29;20322;-85
2023/08/12 01:37:29;;;;;;;15.00;8.27;;;;;;;19.98;100.00;101565.22;987675;29;20051;-85
2023/08/12 01:38:04;;;;;;;10.55;7.55;;;;;;;19.98;100.00;101562.50;992141;29;20047;-85
2023/08/12 01:38:38;;;;;;;10.98;8.52;;;;;;;19.97;100.00;101563.59;997399;29;20047;-85
2023/08/12 01:39:11;;;;;;;11.18;8.63;;;;;;;19.94;100.00;101563.28;996096;29;20413;-85
2023/08/12 01:39:45;;;;;;;16.75;9.48;;;;;;;19.86;100.00;101561.91;997381;29;20141;-85
2023/08/12 01:40:19;;;;;;;9.95;8.82;;;;;;;19.78;100.00;101565.09;994141;29;20050;-85
2023/08/12 01:40:52;;;;;;;10.05;8.55;;;;;;;19.80;100.00;101562.94;997725;29;20050;-85
2023/08/12 01:41:24;;;;;;;9.50;8.57;;;;;;;19.73;100.00;101567.78;992128;29;20046;-85
2023/08/12 01:41:56;;;;;;;10.15;9.10;;;;;;;19.69;100.00;101561.22;991970;29;20058;-85
2023/08/12 01:42:29;;;;;;;13.00;8.07;;;;;;;19.72;100.00;101566.13;983970;30;20454;-85
2023/08/12 01:43:02;;;;;;;11.35;8.32;;;;;;;19.67;100.00;101563.38;999236;29;20074;-85
2023/08/12 01:43:34;;;;;;;14.45;8.77;;;;;;;19.71;100.00;101559.91;998526;29;20462;-85
2023/08/12 01:44:06;;;;;;;11.18;8.55;;;;;;;19.75;100.00;101560.22;996761;29;20046;-85
2023/08/12 01:44:39;;;;;;;10.63;9.63;;;;;;;19.68;100.00;101562.31;999770;29;20433;-85
2023/08/12 01:45:10;;;;;;;10.05;8.35;;;;;;;19.66;100.00;101567.16;996518;29;20111;-85
2023/08/12 01:45:43;;;;;;;9.40;7.82;;;;;;;19.57;100.00;101568.72;992242;29;20046;-85
2023/08/12 01:46:15;;;;;;;9.45;7.68;;;;;;;19.54;100.00;101569.25;988255;29;20445;-85
2023/08/12 01:46:49;;;;;;;12.15;8.90;;;;;;;19.54;100.00;101564.66;992199;29;20046;-85
2023/08/12 01:47:22;;;;;;;9.98;8.98;;;;;;;19.71;100.00;101561.78;995804;29;20058;-85
2023/08/12 01:47:54;;;;;;;13.20;8.90;;;;;;;19.69;100.00;101562.03;990749;29;20063;-85
2023/08/12 01:48:26;;;;;;;11.10;7.88;;;;;;;19.71;100.00;101569.91;995952;29;20054;-85
2023/08/12 01:48:57;;;;;;;11.73;9.52;;;;;;;19.67;100.00;101555.28;998798;29;20050;-85
2023/08/12 01:49:29;;;;;;;12.95;9.15;;;;;;;19.60;100.00;101562.78;995524;29;20066;-85
2023/08/12 01:50:00;;;;;;;12.07;9.02;;;;;;;19.62;100.00;101569.56;999588;29;20049;-85
2023/08/12 01:50:32;;;;;;;13.52;9.70;;;;;;;19.68;100.00;101571.22;999677;29;20045;-85
2023/08/12 01:51:04;;;;;;;12.85;9.48;;;;;;;19.56;100.00;101564.38;999780;29;20061;-85
2023/08/12 01:51:36;;;;;;;16.42;11.00;;;;;;;19.66;100.00;101572.56;1003931;29;20046;-85
2023/08/12 01:52:07;;;;;;;13.82;10.77;;;;;;;19.81;100.00;101566.47;1007134;29;20647;-85
2023/08/12 01:52:39;;;;;;;15.38;9.63;;;;;;;19.72;100.00;101566.97;1003268;29;20496;-85
2023/08/12 01:53:12;;;;;;;13.88;10.02;;;;;;;19.72;100.00;101563.41;991412;29;20407;-85
2023/08/12 01:53:43;;;;;;;11.25;9.32;;;;;;;19.61;100.00;101569.81;986516;30;20511;-85
2023/08/12 01:54:15;;;;;;;12.65;9.82;;;;;;;19.65;100.00;101569.06;991581;29;20050;-85
2023/08/12 01:54:47;;;;;;;13.32;10.52;;;;;;;19.71;100.00;101564.50;992580;29;20078;-85
2023/08/12 01:55:18;;;;;;;10.52;8.77;;;;;;;19.74;100.00;101564.81;991969;29;20050;-85
2023/08/12 01:55:51;;;;;;;13.18;10.05;;;;;;;19.68;100.00;101565.00;994379;29;20043;-85
2023/08/12 01:56:23;;;;;;;11.32;9.98;;;;;;;19.57;100.00;101566.03;999832;29;20054;-85
2023/08/12 01:56:55;;;;;;;12.02;10.25;;;;;;;19.65;100.00;101549.31;1003978;29;20060;-85
2023/08/12 01:57:27;;;;;;;15.07;9.23;;;;;;;19.80;100.00;101562.13;998989;29;20046;-85
2023/08/12 01:57:58;;;;;;;9.85;8.90;;;;;;;19.92;100.00;101558.16;991898;29;20054;-85
2023/08/12 01:58:30;;;;;;;11.57;10.00;;;;;;;19.97;100.00;101558.19;999490;29;20057;-85
2023/08/12 01:59:02;;;;;;;15.15;10.25;;;;;;;19.96;100.00;101553.84;999457;29;20616;-85
2023/08/12 01:59:34;;;;;;;12.70;10.23;;;;;;;20.03;100.00;101559.88;999669;29;20436;-85
2023/08/12 02:00:07;;;;;;;14.10;9.48;;;;;;;20.04;100.00;101549.84;995739;29;20333;-85
2023/08/12 02:00:47;;;;;;;11.73;10.40;;;;;;;20.05;100.00;101549.59;999227;29;20057;-85
2023/08/12 02:01:18;;;;;;;19.60;11.57;;;;;;;20.07;100.00;101546.63;999469;29;20060;-85
2023/08/12 02:01:50;;;;;;;12.77;10.25;;;;;;;20.03;100.00;101549.03;999770;29;20136;-85
2023/08/12 02:02:22;;;;;;;13.07;10.40;;;;;;;20.15;100.00;101537.19;997750;29;20133;-85
2023/08/12 02:02:54;;;;;;;18.90;10.50;;;;;;;20.04;100.00;101539.03;999327;29;20136;-85
2023/08/12 02:03:26;;;;;;;12.00;10.75;;;;;;;20.06;100.00;101545.81;995929;29;20099;-85
2023/08/12 02:03:58;;;;;;;14.23;11.32;;;;;;;19.84;100.00;101536.22;995406;29;20054;-85
2023/08/12 02:04:30;;;;;;;18.48;11.20;;;;;;;19.69;100.00;101537.72;995265;29;20067;-84
2023/08/12 02:05:02;;;;;;;16.42;10.18;;;;;;;19.80;100.00;101540.50;991970;29;20429;-85
2023/08/12 02:05:33;;;;;;;15.93;10.93;;;;;;;19.76;100.00;101537.50;998986;29;20046;-85
2023/08/12 02:06:05;;;;;;;14.52;11.13;;;;;;;19.82;100.00;101539.16;1002965;29;20136;-85
2023/08/12 02:06:38;;;;;;;13.95;10.98;;;;;;;19.91;100.00;101545.72;991454;29;20172;-85
2023/08/12 02:07:10;;;;;;;15.75;10.85;;;;;;;19.90;100.00;101546.78;995436;29;20241;-85
2023/08/12 02:07:42;;;;;;;13.30;10.70;;;;;;;19.86;100.00;101548.38;996454;29;20050;-85
2023/08/12 02:08:13;;;;;;;14.65;11.50;;;;;;;19.91;100.00;101543.00;991722;29;20061;-85
2023/08/12 02:08:45;;;;;;;15.43;10.85;;;;;;;19.85;100.00;101549.47;999665;29;20042;-85
2023/08/12 02:09:17;;;;;;;19.55;12.30;;;;;;;19.85;100.00;101552.16;999503;29;20124;-85
2023/08/12 02:09:48;;;;;;;11.82;10.60;;;;;;;19.91;100.00;101547.59;995620;29;20061;-85
2023/08/12 02:10:20;;;;;;;14.45;10.57;;;;;;;19.92;100.00;101552.75;991657;29;20141;-85
2023/08/12 02:10:51;;;;;;;12.75;11.45;;;;;;;19.75;100.00;101547.53;997729;29;20148;-85
2023/08/12 02:11:42;;;;;;;15.38;11.02;;;;;;;19.91;100.00;101553.81;999292;29;20060;-85
2023/08/12 02:12:13;;;;;;;17.75;11.65;;;;;;;19.91;100.00;101548.41;1003006;29;20045;-85
2023/08/12 02:12:45;;;;;;;12.90;10.85;;;;;;;19.92;100.00;101560.03;1007325;29;20048;-85
2023/08/12 02:13:17;;;;;;;15.23;11.10;;;;;;;19.86;100.00;101551.09;1004075;29;20069;-85
2023/08/12 02:13:48;;;;;;;12.90;11.23;;;;;;;19.88;100.00;101548.13;1000530;29;20042;-85
2023/08/12 02:14:20;;;;;;;12.35;11.05;;;;;;;19.87;100.00;101552.72;995917;29;20056;-85
2023/08/12 02:14:52;;;;;;;16.80;12.20;;;;;;;19.88;100.00;101548.13;999804;29;20045;-85
2023/08/12 02:15:23;;;;;;;16.73;11.73;;;;;;;19.90;100.00;101551.38;998805;29;20118;-85
2023/08/12 02:15:55;;;;;;;13.88;11.95;;;;;;;19.78;100.00;101546.19;998663;29;20058;-85
2023/08/12 02:16:27;;;;;;;13.98;11.68;;;;;;;19.64;100.00;101547.69;999293;29;20065;-85
2023/08/12 02:17:00;;;;;;;12.60;11.35;;;;;;;19.77;100.00;101547.25;992297;29;20538;-85
2023/08/12 02:17:32;;;;;;;13.95;11.10;;;;;;;19.61;100.00;101548.22;995614;29;20046;-85
2023/08/12 02:18:04;;;;;;;11.50;10.45;;;;;;;19.53;100.00;101548.66;996017;29;20203;-85
2023/08/12 02:18:35;;;;;;;13.75;11.15;;;;;;;19.53;100.00;101551.38;991580;29;20043;-85
2023/08/12 02:19:07;;;;;;;12.68;10.88;;;;;;;19.54;100.00;101548.44;995221;29;20057;-85
2023/08/12 02:19:39;;;;;;;15.93;12.35;;;;;;;19.64;100.00;101542.28;995842;29;20053;-85
2023/08/12 02:20:11;;;;;;;14.20;11.45;;;;;;;19.68;100.00;101554.19;995737;29;20047;-85
2023/08/12 02:20:42;;;;;;;14.73;11.10;;;;;;;19.48;100.00;101545.94;1000295;29;20057;-85
2023/08/12 02:21:14;;;;;;;11.20;10.07;;;;;;;19.40;100.00;101547.19;995699;29;20530;-85
2023/08/12 02:21:45;;;;;;;11.30;9.63;;;;;;;19.39;100.00;101546.38;984626;30;20044;-85
2023/08/12 02:22:17;;;;;;;14.52;11.20;;;;;;;19.38;100.00;101546.63;987888;29;20047;-85
2023/08/12 02:22:50;;;;;;;11.20;9.93;;;;;;;19.41;100.00;101544.22;999504;29;20547;-85
2023/08/12 02:23:22;;;;;;;12.98;10.77;;;;;;;19.35;100.00;101553.38;999427;29;20049;-85
2023/08/12 02:23:56;;;;;;;13.60;10.00;;;;;;;19.31;100.00;101544.16;996632;29;20425;-85
2023/08/12 02:24:28;;;;;;;11.93;10.68;;;;;;;19.34;100.00;101543.63;991237;29;20054;-85
2023/08/12 02:24:59;;;;;;;11.43;9.70;;;;;;;19.44;100.00;101546.41;999369;29;20049;-85
2023/08/12 02:25:31;;;;;;;13.20;11.68;;;;;;;19.38;100.00;101542.06;1003150;29;20056;-85
2023/08/12 02:26:03;;;;;;;12.57;11.27;;;;;;;19.22;100.00;101547.59;991988;29;20055;-85
2023/08/12 02:26:35;;;;;;;11.77;10.48;;;;;;;19.31;100.00;101549.56;999397;29;20064;-85
2023/08/12 02:27:06;;;;;;;13.80;11.50;;;;;;;19.52;100.00;101542.44;1003169;29;20054;-85
2023/08/12 02:27:38;;;;;;;13.25;10.98;;;;;;;19.50;100.00;101527.56;1003730;29;20069;-85
2023/08/12 02:28:10;;;;;;;14.82;11.45;;;;;;;19.55;100.00;101541.16;995499;29;20187;-85
2023/08/12 02:28:41;;;;;;;14.68;10.70;;;;;;;19.52;100.00;101539.75;995450;29;20046;-85
2023/08/12 02:29:13;;;;;;;17.05;11.10;;;;;;;19.41;100.00;101538.81;995897;29;20536;-85
2023/08/12 02:29:44;;;;;;;12.48;10.43;;;;;;;19.43;100.00;101530.47;999838;29;20462;-85
2023/08/12 02:30:16;;;;;;;11.68;10.27;;;;;;;19.57;100.00;101530.88;998714;29;20508;-85
2023/08/12 02:30:48;;;;;;;15.55;10.43;;;;;;;19.68;100.00;101532.56;991881;29;20075;-85
2023/08/12 02:31:19;;;;;;;13.20;11.00;;;;;;;19.68;100.00;101532.56;987824;30;20051;-85
2023/08/12 02:31:51;;;;;;;10.73;9.43;;;;;;;19.61;100.00;101532.00;993439;29;20153;-85
2023/08/12 02:32:24;;;;;;;12.35;11.15;;;;;;;19.53;100.00;101535.16;995031;29;20043;-85
2023/08/12 02:32:56;;;;;;;12.00;10.80;;;;;;;19.51;100.00;101531.91;994844;29;20054;-85